createdAt,value
2023-05-19T00:04:21.992Z,0.60
2023-05-19T00:09:31.933Z,0.60
2023-05-19T00:14:40.886Z,0.80
2023-05-19T00:19:48.430Z,0.60
2023-05-19T00:24:55.881Z,1.30
2023-05-19T00:30:03.574Z,0.80
2023-05-19T00:35:12.958Z,0.80
2023-05-19T00:40:21.273Z,0.80
2023-05-19T00:45:29.521Z,1.00
2023-05-19T00:50:37.002Z,0.90
2023-05-19T00:55:44.607Z,0.80
2023-05-19T01:00:52.822Z,1.10
2023-05-19T01:06:05.535Z,0.90
2023-05-19T01:11:13.554Z,1.00
2023-05-19T01:16:30.962Z,0.80
2023-05-19T01:22:13.481Z,1.10
2023-05-19T01:32:37.936Z,0.80
2023-05-19T01:37:47.176Z,1.20
2023-05-19T01:42:58.027Z,1.10
2023-05-19T01:48:10.623Z,1.00
2023-05-19T01:53:20.481Z,1.10
2023-05-19T01:58:40.433Z,1.30
2023-05-19T02:04:01.432Z,1.10
2023-05-19T02:09:14.233Z,1.70
2023-05-19T02:14:27.198Z,1.70
2023-05-19T02:19:41.486Z,2.00
2023-05-19T02:24:52.210Z,1.90
2023-05-19T02:30:00.228Z,1.80
2023-05-19T02:35:08.843Z,1.70
2023-05-19T02:40:17.196Z,1.60
2023-05-19T02:45:24.881Z,1.20
2023-05-19T02:50:32.850Z,1.10
2023-05-19T02:55:40.680Z,1.30
2023-05-19T03:00:48.427Z,1.10
2023-05-19T03:05:56.393Z,0.90
2023-05-19T03:11:04.260Z,0.90
2023-05-19T03:16:12.285Z,0.90
2023-05-19T03:21:20.552Z,1.00
2023-05-19T03:26:29.762Z,0.80
2023-05-19T03:31:37.956Z,1.10
2023-05-19T03:36:46.001Z,1.20
2023-05-19T03:41:56.936Z,1.20
2023-05-19T03:47:04.764Z,1.10
2023-05-19T03:52:37.206Z,1.10
2023-05-19T03:57:53.115Z,0.90
2023-05-19T04:03:01.303Z,1.10
2023-05-19T04:08:09.274Z,1.20
2023-05-19T04:13:16.994Z,1.00
2023-05-19T04:18:25.849Z,1.00
2023-05-19T04:23:34.753Z,1.00
2023-05-19T04:28:42.888Z,0.90
2023-05-19T04:33:50.710Z,1.10
2023-05-19T04:39:03.092Z,1.20
2023-05-19T04:44:11.547Z,1.10
2023-05-19T04:49:19.712Z,1.40
2023-05-19T04:54:27.694Z,1.10
2023-05-19T04:59:36.626Z,1.50
2023-05-19T05:04:47.189Z,1.50
2023-05-19T05:09:55.126Z,1.30
2023-05-19T05:15:04.042Z,1.30
2023-05-19T05:20:14.559Z,1.30
2023-05-19T05:25:25.115Z,1.40
2023-05-19T05:30:32.991Z,1.20
2023-05-19T05:35:40.664Z,1.30
2023-05-19T05:40:49.223Z,1.50
2023-05-19T05:45:57.530Z,1.40
2023-05-19T05:51:07.383Z,1.40
2023-05-19T05:56:17.238Z,1.30
2023-05-19T06:01:31.607Z,1.60
2023-05-19T06:06:40.264Z,1.20
2023-05-19T06:11:49.274Z,1.20
2023-05-19T06:16:57.466Z,1.40
2023-05-19T06:22:05.605Z,1.60
2023-05-19T06:27:14.392Z,1.50
2023-05-19T06:32:22.569Z,1.20
2023-05-19T06:37:30.397Z,1.40
2023-05-19T06:42:38.182Z,1.20
2023-05-19T06:47:55.165Z,1.20
2023-05-19T06:53:03.257Z,1.50
2023-05-19T06:58:10.912Z,1.40
2023-05-19T07:03:19.643Z,1.70
2023-05-19T07:08:28.254Z,1.30
2023-05-19T07:13:35.999Z,1.20
2023-05-19T07:18:44.643Z,1.40
2023-05-19T07:23:52.053Z,1.30
2023-05-19T07:29:00.248Z,1.70
2023-05-19T07:34:07.555Z,1.20
2023-05-19T07:39:15.234Z,1.20
2023-05-19T07:44:23.213Z,1.10
2023-05-19T07:49:31.292Z,1.60
2023-05-19T07:54:38.949Z,1.10
2023-05-19T07:59:46.505Z,1.10
2023-05-19T08:04:54.905Z,1.10
2023-05-19T08:10:02.679Z,1.30
2023-05-19T08:15:12.174Z,1.30
2023-05-19T08:20:19.812Z,1.10
2023-05-19T08:25:31.609Z,1.40
2023-05-19T08:30:39.774Z,1.20
2023-05-19T08:35:47.597Z,1.10
2023-05-19T08:40:55.512Z,0.90
2023-05-19T08:46:07.481Z,1.30
2023-05-19T08:56:25.736Z,0.90
2023-05-19T09:01:34.126Z,1.10
2023-05-19T09:06:42.775Z,1.10
2023-05-19T09:11:51.808Z,1.20
2023-05-19T09:16:59.543Z,1.20
2023-05-19T09:22:07.343Z,0.90
2023-05-19T09:27:23.473Z,1.10
2023-05-19T09:32:32.118Z,0.80
2023-05-19T09:37:40.996Z,0.80
2023-05-19T09:42:49.569Z,1.00
2023-05-19T09:47:57.414Z,0.80
2023-05-19T09:53:05.906Z,0.80
2023-05-19T09:58:18.778Z,1.10
2023-05-19T10:03:27.332Z,1.00
2023-05-19T10:08:36.294Z,0.80
2023-05-19T10:13:44.976Z,0.80
2023-05-19T10:18:54.914Z,0.90
2023-05-19T10:24:02.844Z,0.80
2023-05-19T10:29:10.852Z,1.20
2023-05-19T10:34:51.337Z,0.90
2023-05-19T10:39:59.792Z,1.20
2023-05-19T10:45:15.565Z,0.80
2023-05-19T10:50:23.959Z,1.00
2023-05-19T10:55:52.541Z,0.70
2023-05-19T11:01:09.571Z,0.90
2023-05-19T11:06:30.161Z,0.70
2023-05-19T11:11:50.317Z,0.80
2023-05-19T11:17:01.221Z,0.90
2023-05-19T11:22:16.238Z,0.70
2023-05-19T11:27:26.934Z,0.80
2023-05-19T11:32:36.447Z,0.80
2023-05-19T11:37:44.683Z,0.80
2023-05-19T11:42:52.992Z,1.00
2023-05-19T11:48:02.995Z,1.00
2023-05-19T11:53:13.730Z,0.90
2023-05-19T11:58:27.646Z,0.90
2023-05-19T12:03:35.447Z,0.90
2023-05-19T12:08:43.327Z,0.80
2023-05-19T12:13:55.107Z,0.90
2023-05-19T12:19:02.787Z,0.80
2023-05-19T12:24:11.248Z,0.80
2023-05-19T12:29:18.895Z,0.90
2023-05-19T12:34:27.207Z,0.70
2023-05-19T12:39:35.310Z,0.70
2023-05-19T12:44:48.143Z,0.70
2023-05-19T12:50:05.124Z,0.70
2023-05-19T12:55:14.985Z,0.70
2023-05-19T13:00:26.123Z,0.70
2023-05-19T13:05:35.463Z,0.70
2023-05-19T13:10:44.533Z,0.80
2023-05-19T13:15:52.181Z,0.80
2023-05-19T13:21:00.384Z,1.00
2023-05-19T13:26:09.014Z,0.70
2023-05-19T13:31:16.739Z,0.70
2023-05-19T13:36:24.666Z,0.80
2023-05-19T13:41:32.973Z,0.70
2023-05-19T13:46:45.566Z,0.70
2023-05-19T13:52:02.071Z,0.70
2023-05-19T13:57:10.208Z,0.60
2023-05-19T14:02:18.558Z,0.60
2023-05-19T14:07:26.482Z,0.70
2023-05-19T14:12:45.104Z,0.70
2023-05-19T14:18:03.597Z,0.80
2023-05-19T14:23:12.814Z,0.60
2023-05-19T14:28:20.608Z,0.60
2023-05-19T14:33:32.730Z,0.60
2023-05-19T14:38:42.826Z,0.70
2023-05-19T14:43:50.756Z,0.80
2023-05-19T14:48:58.437Z,0.90
2023-05-19T14:54:06.602Z,0.70
2023-05-19T14:59:14.549Z,0.50
2023-05-19T15:04:22.165Z,0.90
2023-05-19T15:09:29.753Z,0.90
2023-05-19T15:14:37.459Z,0.60
2023-05-19T15:19:45.432Z,1.20
2023-05-19T15:24:53.320Z,0.70
2023-05-19T15:30:00.978Z,0.90
2023-05-19T15:35:10.253Z,0.90
2023-05-19T15:40:19.213Z,0.90
2023-05-19T15:45:27.653Z,0.80
2023-05-19T15:50:36.042Z,0.90
2023-05-19T15:55:44.030Z,1.10
2023-05-19T16:00:51.653Z,0.80
2023-05-19T16:05:59.622Z,0.70
2023-05-19T16:11:10.550Z,0.90
2023-05-19T16:16:18.229Z,1.10
2023-05-19T16:21:26.726Z,1.00
2023-05-19T16:26:34.908Z,1.20
2023-05-19T16:31:43.126Z,1.00
2023-05-19T16:36:50.869Z,1.00
2023-05-19T16:41:58.845Z,0.90
2023-05-19T16:47:06.941Z,1.30
2023-05-19T16:52:16.298Z,1.20
2023-05-19T16:57:24.227Z,1.00
2023-05-19T17:02:32.389Z,1.10
2023-05-19T17:07:40.640Z,1.10
2023-05-19T17:12:48.492Z,1.30
2023-05-19T17:17:56.086Z,1.10
2023-05-19T17:23:03.629Z,1.00
2023-05-19T17:28:11.206Z,1.20
2023-05-19T17:33:19.282Z,14.40
2023-05-19T17:38:26.956Z,33.60
2023-05-19T17:43:35.720Z,20.60
2023-05-19T17:48:43.738Z,9.10
2023-05-19T17:53:52.664Z,4.50
2023-05-19T17:59:03.701Z,3.10
2023-05-19T18:04:14.623Z,2.40
2023-05-19T18:09:29.143Z,2.50
2023-05-19T18:14:39.602Z,2.00
2023-05-19T18:19:47.217Z,1.90
2023-05-19T18:24:54.615Z,1.60
2023-05-19T18:30:02.418Z,1.60
2023-05-19T18:35:11.456Z,2.00
2023-05-19T18:40:19.300Z,3.00
2023-05-19T18:45:27.147Z,2.20
2023-05-19T18:50:35.036Z,1.60
2023-05-19T18:55:42.648Z,1.80
2023-05-19T19:00:51.093Z,2.40
2023-05-19T19:06:02.420Z,5.20
2023-05-19T19:11:11.742Z,3.10
2023-05-19T19:16:19.347Z,2.10
2023-05-19T19:21:26.749Z,2.00
2023-05-19T19:26:34.422Z,2.30
2023-05-19T19:31:41.963Z,2.90
2023-05-19T19:36:50.410Z,3.10
2023-05-19T19:41:57.981Z,3.00
2023-05-19T19:47:06.526Z,2.40
2023-05-19T19:52:14.223Z,1.90
2023-05-19T19:57:21.981Z,1.80
2023-05-19T20:02:29.668Z,1.50
2023-05-19T20:07:38.236Z,1.20
2023-05-19T20:12:48.313Z,1.60
2023-05-19T20:17:56.003Z,1.50
2023-05-19T20:23:03.553Z,1.50
2023-05-19T20:28:11.090Z,1.80
2023-05-19T20:33:18.592Z,2.50
2023-05-19T20:38:26.322Z,2.20
2023-05-19T20:43:34.141Z,2.00
2023-05-19T20:48:41.716Z,1.80
2023-05-19T20:53:49.388Z,2.30
2023-05-19T20:58:56.914Z,2.40
2023-05-19T21:04:08.268Z,5.00
2023-05-19T21:09:16.072Z,5.00
2023-05-19T21:14:23.970Z,4.10
2023-05-19T21:19:37.578Z,2.40
2023-05-19T21:24:44.933Z,2.30
2023-05-19T21:29:54.851Z,1.80
2023-05-19T21:35:02.750Z,1.80
2023-05-19T21:40:12.078Z,1.50
2023-05-19T21:45:19.829Z,1.40
2023-05-19T21:50:27.526Z,1.50
2023-05-19T21:55:36.364Z,1.30
2023-05-19T22:00:44.480Z,1.50
2023-05-19T22:05:54.236Z,1.40
2023-05-19T22:11:01.667Z,1.70
2023-05-19T22:16:09.761Z,1.60
2023-05-19T22:21:17.167Z,1.40
2023-05-19T22:26:24.828Z,1.80
2023-05-19T22:31:32.968Z,1.60
2023-05-19T22:36:41.667Z,1.30
2023-05-19T22:41:49.025Z,1.40
2023-05-19T22:46:56.664Z,1.20
2023-05-19T22:52:04.025Z,1.60
2023-05-19T22:57:12.374Z,1.50
2023-05-19T23:02:20.239Z,1.50
2023-05-19T23:07:27.964Z,1.80
2023-05-19T23:12:35.761Z,1.50
2023-05-19T23:17:43.246Z,1.70
2023-05-19T23:22:50.792Z,1.60
2023-05-19T23:27:58.151Z,1.60
2023-05-19T23:33:05.799Z,1.80
2023-05-19T23:38:13.903Z,1.60
2023-05-19T23:43:21.753Z,1.90
2023-05-19T23:48:29.718Z,1.50
2023-05-19T23:53:37.405Z,1.40
2023-05-19T23:58:45.238Z,1.90
